sensor_id;sensor_type;location;lat;lon;timestamp;temperature;humidity
41469;DHT22;27206;47.032;15.484;2023-07-29T00:01:12;19.70;99.90
41469;DHT22;27206;47.032;15.484;2023-07-29T00:03:38;19.60;99.90
41469;DHT22;27206;47.032;15.484;2023-07-29T00:06:03;19.60;99.90
41469;DHT22;27206;47.032;15.484;2023-07-29T00:08:29;19.60;99.90
41469;DHT22;27206;47.032;15.484;2023-07-29T00:10:54;19.70;99.90
41469;DHT22;27206;47.032;15.484;2023-07-29T00:13:20;19.60;99.90
41469;DHT22;27206;47.032;15.484;2023-07-29T00:15:46;19.60;99.90
41469;DHT22;27206;47.032;15.484;2023-07-29T00:18:11;19.60;99.90
41469;DHT22;27206;47.032;15.484;2023-07-29T00:20:37;19.60;99.90
41469;DHT22;27206;47.032;15.484;2023-07-29T00:23:03;19.60;99.90
41469;DHT22;27206;47.032;15.484;2023-07-29T00:25:28;19.60;99.90
41469;DHT22;27206;47.032;15.484;2023-07-29T00:27:57;19.60;99.90
41469;DHT22;27206;47.032;15.484;2023-07-29T00:30:24;19.60;99.90
41469;DHT22;27206;47.032;15.484;2023-07-29T00:32:49;19.50;99.90
41469;DHT22;27206;47.032;15.484;2023-07-29T00:35:15;19.50;99.90
41469;DHT22;27206;47.032;15.484;2023-07-29T00:37:41;19.40;99.90
41469;DHT22;27206;47.032;15.484;2023-07-29T00:40:20;19.40;99.90
41469;DHT22;27206;47.032;15.484;2023-07-29T00:42:46;19.50;99.90
41469;DHT22;27206;47.032;15.484;2023-07-29T00:45:12;19.50;99.90
41469;DHT22;27206;47.032;15.484;2023-07-29T00:47:38;19.50;99.90
41469;DHT22;27206;47.032;15.484;2023-07-29T00:50:06;19.50;99.90
41469;DHT22;27206;47.032;15.484;2023-07-29T00:52:32;19.50;99.90
41469;DHT22;27206;47.032;15.484;2023-07-29T00:54:58;19.50;99.90
41469;DHT22;27206;47.032;15.484;2023-07-29T00:57:24;19.50;99.90
41469;DHT22;27206;47.032;15.484;2023-07-29T00:59:51;19.40;99.90
41469;DHT22;27206;47.032;15.484;2023-07-29T01:02:16;19.40;99.90
41469;DHT22;27206;47.032;15.484;2023-07-29T01:04:42;19.40;99.90
41469;DHT22;27206;47.032;15.484;2023-07-29T01:07:20;19.30;99.90
41469;DHT22;27206;47.032;15.484;2023-07-29T01:12:27;19.30;99.90
41469;DHT22;27206;47.032;15.484;2023-07-29T01:17:45;19.20;99.90
41469;DHT22;27206;47.032;15.484;2023-07-29T01:20:15;19.20;99.90
41469;DHT22;27206;47.032;15.484;2023-07-29T01:22:41;19.20;99.90
41469;DHT22;27206;47.032;15.484;2023-07-29T01:25:07;19.10;99.90
41469;DHT22;27206;47.032;15.484;2023-07-29T01:27:33;19.00;99.90
41469;DHT22;27206;47.032;15.484;2023-07-29T01:29:59;18.90;99.90
41469;DHT22;27206;47.032;15.484;2023-07-29T01:35:10;18.80;99.90
41469;DHT22;27206;47.032;15.484;2023-07-29T01:37:39;18.80;99.90
41469;DHT22;27206;47.032;15.484;2023-07-29T01:40:07;18.70;99.90
41469;DHT22;27206;47.032;15.484;2023-07-29T01:42:34;18.70;99.90
41469;DHT22;27206;47.032;15.484;2023-07-29T01:45:00;18.70;99.90
41469;DHT22;27206;47.032;15.484;2023-07-29T01:47:25;18.60;99.90
41469;DHT22;27206;47.032;15.484;2023-07-29T01:49:51;18.70;99.90
41469;DHT22;27206;47.032;15.484;2023-07-29T01:52:17;18.60;99.90
41469;DHT22;27206;47.032;15.484;2023-07-29T01:54:43;18.50;99.90
41469;DHT22;27206;47.032;15.484;2023-07-29T01:57:09;18.40;99.90
41469;DHT22;27206;47.032;15.484;2023-07-29T01:59:35;18.40;99.90
41469;DHT22;27206;47.032;15.484;2023-07-29T02:02:00;18.40;99.90
41469;DHT22;27206;47.032;15.484;2023-07-29T02:04:26;18.40;99.90
41469;DHT22;27206;47.032;15.484;2023-07-29T02:06:52;18.30;99.90
41469;DHT22;27206;47.032;15.484;2023-07-29T02:09:18;18.30;99.90
41469;DHT22;27206;47.032;15.484;2023-07-29T02:11:43;18.30;99.90
41469;DHT22;27206;47.032;15.484;2023-07-29T02:14:09;18.30;99.90
41469;DHT22;27206;47.032;15.484;2023-07-29T02:16:35;18.30;99.90
41469;DHT22;27206;47.032;15.484;2023-07-29T02:19:01;18.30;99.90
41469;DHT22;27206;47.032;15.484;2023-07-29T02:21:30;18.30;99.90
41469;DHT22;27206;47.032;15.484;2023-07-29T02:23:55;18.20;99.90
41469;DHT22;27206;47.032;15.484;2023-07-29T02:26:22;18.10;99.90
41469;DHT22;27206;47.032;15.484;2023-07-29T02:28:48;18.10;99.90
41469;DHT22;27206;47.032;15.484;2023-07-29T02:31:20;18.10;99.90
41469;DHT22;27206;47.032;15.484;2023-07-29T02:33:46;18.10;99.90
41469;DHT22;27206;47.032;15.484;2023-07-29T02:36:13;18.10;99.90
41469;DHT22;27206;47.032;15.484;2023-07-29T02:38:40;18.00;99.90
41469;DHT22;27206;47.032;15.484;2023-07-29T02:41:06;18.10;99.90
41469;DHT22;27206;47.032;15.484;2023-07-29T02:43:35;18.10;99.90
41469;DHT22;27206;47.032;15.484;2023-07-29T02:46:01;18.10;99.90
41469;DHT22;27206;47.032;15.484;2023-07-29T02:48:27;18.00;99.90
41469;DHT22;27206;47.032;15.484;2023-07-29T02:50:53;18.00;99.90
41469;DHT22;27206;47.032;15.484;2023-07-29T02:53:19;18.10;99.90
41469;DHT22;27206;47.032;15.484;2023-07-29T02:55:45;18.10;99.90
41469;DHT22;27206;47.032;15.484;2023-07-29T02:58:11;18.00;99.90
41469;DHT22;27206;47.032;15.484;2023-07-29T03:00:36;18.00;99.90
41469;DHT22;27206;47.032;15.484;2023-07-29T03:03:02;18.00;99.90
41469;DHT22;27206;47.032;15.484;2023-07-29T03:05:28;18.00;99.90
41469;DHT22;27206;47.032;15.484;2023-07-29T03:07:54;18.10;99.90
41469;DHT22;27206;47.032;15.484;2023-07-29T03:10:20;18.10;99.90
41469;DHT22;27206;47.032;15.484;2023-07-29T03:12:46;18.10;99.90
41469;DHT22;27206;47.032;15.484;2023-07-29T03:15:12;18.00;99.90
41469;DHT22;27206;47.032;15.484;2023-07-29T03:17:38;18.00;99.90
41469;DHT22;27206;47.032;15.484;2023-07-29T03:20:04;18.10;99.90
41469;DHT22;27206;47.032;15.484;2023-07-29T03:22:30;18.00;99.90
41469;DHT22;27206;47.032;15.484;2023-07-29T03:24:55;18.10;99.90
41469;DHT22;27206;47.032;15.484;2023-07-29T03:27:21;18.00;99.90
41469;DHT22;27206;47.032;15.484;2023-07-29T03:29:47;18.10;99.90
41469;DHT22;27206;47.032;15.484;2023-07-29T03:32:13;18.00;99.90
41469;DHT22;27206;47.032;15.484;2023-07-29T03:34:38;18.10;99.90
41469;DHT22;27206;47.032;15.484;2023-07-29T03:37:05;18.10;99.90
41469;DHT22;27206;47.032;15.484;2023-07-29T03:39:31;18.10;99.90
41469;DHT22;27206;47.032;15.484;2023-07-29T03:42:01;18.20;99.90
41469;DHT22;27206;47.032;15.484;2023-07-29T03:44:26;18.20;99.90
41469;DHT22;27206;47.032;15.484;2023-07-29T03:46:52;18.10;99.90
41469;DHT22;27206;47.032;15.484;2023-07-29T03:49:18;18.10;99.90
41469;DHT22;27206;47.032;15.484;2023-07-29T03:51:47;18.10;99.90
41469;DHT22;27206;47.032;15.484;2023-07-29T03:54:13;18.10;99.90
41469;DHT22;27206;47.032;15.484;2023-07-29T03:56:38;18.20;99.90
41469;DHT22;27206;47.032;15.484;2023-07-29T03:59:05;18.20;99.90
41469;DHT22;27206;47.032;15.484;2023-07-29T04:01:31;18.20;99.90
41469;DHT22;27206;47.032;15.484;2023-07-29T04:03:58;18.20;99.90
41469;DHT22;27206;47.032;15.484;2023-07-29T04:06:24;18.30;99.90
41469;DHT22;27206;47.032;15.484;2023-07-29T04:08:50;18.30;99.90
41469;DHT22;27206;47.032;15.484;2023-07-29T04:11:16;18.30;99.90
41469;DHT22;27206;47.032;15.484;2023-07-29T04:13:41;18.30;99.90
41469;DHT22;27206;47.032;15.484;2023-07-29T04:16:07;18.30;99.90
41469;DHT22;27206;47.032;15.484;2023-07-29T04:18:33;18.30;99.90
41469;DHT22;27206;47.032;15.484;2023-07-29T04:20:58;18.20;99.90
41469;DHT22;27206;47.032;15.484;2023-07-29T04:23:24;18.30;99.90
41469;DHT22;27206;47.032;15.484;2023-07-29T04:25:50;18.40;99.90
41469;DHT22;27206;47.032;15.484;2023-07-29T04:28:17;18.40;99.90
41469;DHT22;27206;47.032;15.484;2023-07-29T04:30:43;18.40;99.90
41469;DHT22;27206;47.032;15.484;2023-07-29T04:33:08;18.40;99.90
41469;DHT22;27206;47.032;15.484;2023-07-29T04:35:34;18.40;99.90
41469;DHT22;27206;47.032;15.484;2023-07-29T04:38:00;18.40;99.90
41469;DHT22;27206;47.032;15.484;2023-07-29T04:40:25;18.50;99.90
41469;DHT22;27206;47.032;15.484;2023-07-29T04:42:51;18.50;99.90
41469;DHT22;27206;47.032;15.484;2023-07-29T04:45:17;18.50;99.90
41469;DHT22;27206;47.032;15.484;2023-07-29T04:47:43;18.50;99.90
41469;DHT22;27206;47.032;15.484;2023-07-29T04:50:09;18.40;99.90
41469;DHT22;27206;47.032;15.484;2023-07-29T04:52:35;18.50;99.90
41469;DHT22;27206;47.032;15.484;2023-07-29T04:55:00;18.50;99.90
41469;DHT22;27206;47.032;15.484;2023-07-29T04:57:26;18.60;99.90
41469;DHT22;27206;47.032;15.484;2023-07-29T04:59:51;18.60;99.90
41469;DHT22;27206;47.032;15.484;2023-07-29T05:02:17;18.60;99.90
41469;DHT22;27206;47.032;15.484;2023-07-29T05:04:43;18.70;99.90
41469;DHT22;27206;47.032;15.484;2023-07-29T05:07:08;18.70;99.90
41469;DHT22;27206;47.032;15.484;2023-07-29T05:09:34;18.90;99.90
41469;DHT22;27206;47.032;15.484;2023-07-29T05:12:00;18.90;99.90
41469;DHT22;27206;47.032;15.484;2023-07-29T05:14:26;18.90;99.90
41469;DHT22;27206;47.032;15.484;2023-07-29T05:16:51;19.10;99.90
41469;DHT22;27206;47.032;15.484;2023-07-29T05:19:17;19.00;99.90
41469;DHT22;27206;47.032;15.484;2023-07-29T05:21:43;19.10;99.90
41469;DHT22;27206;47.032;15.484;2023-07-29T05:24:09;19.10;99.90
41469;DHT22;27206;47.032;15.484;2023-07-29T05:26:34;19.10;99.90
41469;DHT22;27206;47.032;15.484;2023-07-29T05:29:00;19.20;99.90
41469;DHT22;27206;47.032;15.484;2023-07-29T05:31:25;19.20;99.90
41469;DHT22;27206;47.032;15.484;2023-07-29T05:33:51;19.20;99.90
41469;DHT22;27206;47.032;15.484;2023-07-29T05:36:17;19.20;99.90
41469;DHT22;27206;47.032;15.484;2023-07-29T05:38:42;19.20;99.90
41469;DHT22;27206;47.032;15.484;2023-07-29T05:41:08;19.30;99.90
41469;DHT22;27206;47.032;15.484;2023-07-29T05:43:33;19.20;99.90
41469;DHT22;27206;47.032;15.484;2023-07-29T05:45:59;19.30;99.90
41469;DHT22;27206;47.032;15.484;2023-07-29T05:48:25;19.40;99.90
41469;DHT22;27206;47.032;15.484;2023-07-29T05:50:50;19.50;99.90
41469;DHT22;27206;47.032;15.484;2023-07-29T05:53:16;19.50;99.90
41469;DHT22;27206;47.032;15.484;2023-07-29T05:55:42;19.50;99.90
41469;DHT22;27206;47.032;15.484;2023-07-29T05:58:07;19.60;99.90
41469;DHT22;27206;47.032;15.484;2023-07-29T06:00:33;19.60;99.90
41469;DHT22;27206;47.032;15.484;2023-07-29T06:02:59;19.50;99.90
41469;DHT22;27206;47.032;15.484;2023-07-29T06:05:24;19.50;99.90
41469;DHT22;27206;47.032;15.484;2023-07-29T06:07:50;19.60;99.90
41469;DHT22;27206;47.032;15.484;2023-07-29T06:10:16;19.70;99.90
41469;DHT22;27206;47.032;15.484;2023-07-29T06:12:45;19.70;99.90
41469;DHT22;27206;47.032;15.484;2023-07-29T06:15:11;19.70;99.90
41469;DHT22;27206;47.032;15.484;2023-07-29T06:17:38;19.80;99.90
41469;DHT22;27206;47.032;15.484;2023-07-29T06:20:04;19.80;99.90
41469;DHT22;27206;47.032;15.484;2023-07-29T06:22:31;19.80;99.90
41469;DHT22;27206;47.032;15.484;2023-07-29T06:24:56;19.90;99.90
41469;DHT22;27206;47.032;15.484;2023-07-29T06:27:22;20.00;99.90
41469;DHT22;27206;47.032;15.484;2023-07-29T06:29:48;20.00;99.90
41469;DHT22;27206;47.032;15.484;2023-07-29T06:32:13;20.00;99.90
41469;DHT22;27206;47.032;15.484;2023-07-29T06:34:39;20.10;99.90
41469;DHT22;27206;47.032;15.484;2023-07-29T06:37:05;20.20;99.90
41469;DHT22;27206;47.032;15.484;2023-07-29T06:39:30;20.20;99.90
41469;DHT22;27206;47.032;15.484;2023-07-29T06:41:56;20.30;99.90
41469;DHT22;27206;47.032;15.484;2023-07-29T06:44:21;20.50;99.90
41469;DHT22;27206;47.032;15.484;2023-07-29T06:46:47;20.60;99.90
41469;DHT22;27206;47.032;15.484;2023-07-29T06:49:13;20.90;99.90
41469;DHT22;27206;47.032;15.484;2023-07-29T06:51:38;21.00;99.90
41469;DHT22;27206;47.032;15.484;2023-07-29T06:54:04;21.10;99.90
41469;DHT22;27206;47.032;15.484;2023-07-29T06:56:29;21.20;99.90
41469;DHT22;27206;47.032;15.484;2023-07-29T06:58:55;21.10;99.90
41469;DHT22;27206;47.032;15.484;2023-07-29T07:01:21;21.10;99.90
41469;DHT22;27206;47.032;15.484;2023-07-29T07:03:46;21.10;99.90
41469;DHT22;27206;47.032;15.484;2023-07-29T07:06:12;21.20;99.90
41469;DHT22;27206;47.032;15.484;2023-07-29T07:08:37;21.40;99.90
41469;DHT22;27206;47.032;15.484;2023-07-29T07:11:03;21.40;99.90
41469;DHT22;27206;47.032;15.484;2023-07-29T07:13:29;21.40;99.90
41469;DHT22;27206;47.032;15.484;2023-07-29T07:15:55;21.50;99.90
41469;DHT22;27206;47.032;15.484;2023-07-29T07:18:21;21.40;99.90
41469;DHT22;27206;47.032;15.484;2023-07-29T07:20:51;21.30;99.90
41469;DHT22;27206;47.032;15.484;2023-07-29T07:23:17;21.30;99.90
41469;DHT22;27206;47.032;15.484;2023-07-29T07:25:43;21.30;99.90
41469;DHT22;27206;47.032;15.484;2023-07-29T07:28:09;21.50;99.90
41469;DHT22;27206;47.032;15.484;2023-07-29T07:30:35;21.70;99.90
41469;DHT22;27206;47.032;15.484;2023-07-29T07:33:04;21.90;99.90
41469;DHT22;27206;47.032;15.484;2023-07-29T07:35:30;22.00;99.90
41469;DHT22;27206;47.032;15.484;2023-07-29T07:37:55;22.10;99.90
41469;DHT22;27206;47.032;15.484;2023-07-29T07:40:21;22.10;99.90
41469;DHT22;27206;47.032;15.484;2023-07-29T07:42:47;22.20;99.90
41469;DHT22;27206;47.032;15.484;2023-07-29T07:45:12;22.30;99.90
41469;DHT22;27206;47.032;15.484;2023-07-29T07:47:38;22.40;99.90
41469;DHT22;27206;47.032;15.484;2023-07-29T07:50:04;22.50;99.90
41469;DHT22;27206;47.032;15.484;2023-07-29T07:52:29;22.60;99.70
41469;DHT22;27206;47.032;15.484;2023-07-29T07:54:55;22.60;99.90
41469;DHT22;27206;47.032;15.484;2023-07-29T07:57:21;22.80;94.80
41469;DHT22;27206;47.032;15.484;2023-07-29T07:59:47;22.80;98.40
41469;DHT22;27206;47.032;15.484;2023-07-29T08:02:13;22.80;97.10
41469;DHT22;27206;47.032;15.484;2023-07-29T08:04:38;22.80;96.80
41469;DHT22;27206;47.032;15.484;2023-07-29T08:07:04;23.00;95.00
41469;DHT22;27206;47.032;15.484;2023-07-29T08:09:30;23.10;93.80
41469;DHT22;27206;47.032;15.484;2023-07-29T08:11:55;23.20;93.20
41469;DHT22;27206;47.032;15.484;2023-07-29T08:14:21;23.40;93.40
41469;DHT22;27206;47.032;15.484;2023-07-29T08:16:47;23.50;93.30
41469;DHT22;27206;47.032;15.484;2023-07-29T08:19:12;23.70;90.20
41469;DHT22;27206;47.032;15.484;2023-07-29T08:21:38;23.80;88.70
41469;DHT22;27206;47.032;15.484;2023-07-29T08:24:03;23.80;80.60
41469;DHT22;27206;47.032;15.484;2023-07-29T08:26:29;24.00;90.20
41469;DHT22;27206;47.032;15.484;2023-07-29T08:28:55;24.20;91.70
41469;DHT22;27206;47.032;15.484;2023-07-29T08:31:20;24.40;92.80
41469;DHT22;27206;47.032;15.484;2023-07-29T08:33:46;24.40;89.20
41469;DHT22;27206;47.032;15.484;2023-07-29T08:36:12;24.50;99.90
41469;DHT22;27206;47.032;15.484;2023-07-29T08:38:37;24.60;99.90
41469;DHT22;27206;47.032;15.484;2023-07-29T08:43:56;24.60;99.90
41469;DHT22;27206;47.032;15.484;2023-07-29T08:46:25;24.60;99.90
41469;DHT22;27206;47.032;15.484;2023-07-29T08:48:51;24.60;99.90
41469;DHT22;27206;47.032;15.484;2023-07-29T08:51:17;24.60;99.90
41469;DHT22;27206;47.032;15.484;2023-07-29T08:53:45;24.60;99.90
41469;DHT22;27206;47.032;15.484;2023-07-29T08:56:12;24.70;99.90
41469;DHT22;27206;47.032;15.484;2023-07-29T08:58:37;24.80;99.90
41469;DHT22;27206;47.032;15.484;2023-07-29T09:01:05;24.80;99.90
41469;DHT22;27206;47.032;15.484;2023-07-29T09:03:31;24.90;99.90
41469;DHT22;27206;47.032;15.484;2023-07-29T09:05:58;24.90;97.20
41469;DHT22;27206;47.032;15.484;2023-07-29T09:08:27;25.10;97.10
41469;DHT22;27206;47.032;15.484;2023-07-29T09:10:54;25.20;95.40
41469;DHT22;27206;47.032;15.484;2023-07-29T09:13:20;25.30;92.60
41469;DHT22;27206;47.032;15.484;2023-07-29T09:15:46;25.30;85.90
41469;DHT22;27206;47.032;15.484;2023-07-29T09:18:16;25.40;80.30
41469;DHT22;27206;47.032;15.484;2023-07-29T09:20:42;25.40;80.40
41469;DHT22;27206;47.032;15.484;2023-07-29T09:23:09;25.60;74.50
41469;DHT22;27206;47.032;15.484;2023-07-29T09:25:37;25.80;54.60
41469;DHT22;27206;47.032;15.484;2023-07-29T09:28:11;26.00;51.70
41469;DHT22;27206;47.032;15.484;2023-07-29T09:30:42;26.10;45.50
41469;DHT22;27206;47.032;15.484;2023-07-29T09:33:10;26.20;46.00
41469;DHT22;27206;47.032;15.484;2023-07-29T09:35:37;26.30;44.10
41469;DHT22;27206;47.032;15.484;2023-07-29T09:38:05;26.50;50.60
41469;DHT22;27206;47.032;15.484;2023-07-29T09:40:35;26.60;37.70
41469;DHT22;27206;47.032;15.484;2023-07-29T09:43:01;26.80;43.70
41469;DHT22;27206;47.032;15.484;2023-07-29T09:45:27;26.90;48.90
41469;DHT22;27206;47.032;15.484;2023-07-29T09:47:54;27.00;43.20
41469;DHT22;27206;47.032;15.484;2023-07-29T09:50:26;27.20;43.60
41469;DHT22;27206;47.032;15.484;2023-07-29T09:52:53;27.20;14.60
41469;DHT22;27206;47.032;15.484;2023-07-29T09:55:22;27.20;26.30
41469;DHT22;27206;47.032;15.484;2023-07-29T09:57:57;27.30;18.20
41469;DHT22;27206;47.032;15.484;2023-07-29T10:00:25;27.30;20.10
41469;DHT22;27206;47.032;15.484;2023-07-29T10:02:52;27.50;30.40
41469;DHT22;27206;47.032;15.484;2023-07-29T10:05:18;27.80;41.10
41469;DHT22;27206;47.032;15.484;2023-07-29T10:07:45;28.00;44.00
41469;DHT22;27206;47.032;15.484;2023-07-29T10:10:12;28.00;23.50
41469;DHT22;27206;47.032;15.484;2023-07-29T10:12:39;28.20;31.40
41469;DHT22;27206;47.032;15.484;2023-07-29T10:15:08;28.30;18.20
41469;DHT22;27206;47.032;15.484;2023-07-29T10:17:36;28.30;18.80
41469;DHT22;27206;47.032;15.484;2023-07-29T10:20:04;28.10;13.40
41469;DHT22;27206;47.032;15.484;2023-07-29T10:22:35;28.30;10.70
41469;DHT22;27206;47.032;15.484;2023-07-29T10:25:05;28.40;14.90
41469;DHT22;27206;47.032;15.484;2023-07-29T10:27:57;28.40;22.90
41469;DHT22;27206;47.032;15.484;2023-07-29T10:30:21;28.70;24.60
41469;DHT22;27206;47.032;15.484;2023-07-29T10:32:48;29.00;25.40
41469;DHT22;27206;47.032;15.484;2023-07-29T10:35:15;28.90;3.70
41469;DHT22;27206;47.032;15.484;2023-07-29T10:37:41;28.80;1.00
41469;DHT22;27206;47.032;15.484;2023-07-29T10:40:09;29.00;5.20
41469;DHT22;27206;47.032;15.484;2023-07-29T10:42:35;29.20;10.00
41469;DHT22;27206;47.032;15.484;2023-07-29T10:45:20;29.30;7.60
41469;DHT22;27206;47.032;15.484;2023-07-29T10:47:47;29.30;1.00
41469;DHT22;27206;47.032;15.484;2023-07-29T10:50:20;29.40;1.00
41469;DHT22;27206;47.032;15.484;2023-07-29T10:52:50;29.20;1.00
41469;DHT22;27206;47.032;15.484;2023-07-29T10:55:33;29.30;1.00
41469;DHT22;27206;47.032;15.484;2023-07-29T11:00:33;29.50;1.00
41469;DHT22;27206;47.032;15.484;2023-07-29T11:03:03;29.50;1.00
41469;DHT22;27206;47.032;15.484;2023-07-29T11:05:44;29.80;1.00
41469;DHT22;27206;47.032;15.484;2023-07-29T11:08:36;29.80;1.00
41469;DHT22;27206;47.032;15.484;2023-07-29T11:11:12;29.80;1.00
41469;DHT22;27206;47.032;15.484;2023-07-29T11:13:38;29.60;1.00
41469;DHT22;27206;47.032;15.484;2023-07-29T11:16:05;29.80;1.00
41469;DHT22;27206;47.032;15.484;2023-07-29T11:18:35;30.10;1.00
41469;DHT22;27206;47.032;15.484;2023-07-29T11:21:02;30.00;1.00
41469;DHT22;27206;47.032;15.484;2023-07-29T11:23:33;29.90;1.00
41469;DHT22;27206;47.032;15.484;2023-07-29T11:25:59;30.20;1.00
41469;DHT22;27206;47.032;15.484;2023-07-29T11:28:26;30.10;1.00
41469;DHT22;27206;47.032;15.484;2023-07-29T11:30:52;30.30;1.00
41469;DHT22;27206;47.032;15.484;2023-07-29T11:33:20;30.40;1.00
41469;DHT22;27206;47.032;15.484;2023-07-29T11:35:46;30.40;1.00
41469;DHT22;27206;47.032;15.484;2023-07-29T11:38:15;30.60;1.00
41469;DHT22;27206;47.032;15.484;2023-07-29T11:40:41;30.70;1.00
41469;DHT22;27206;47.032;15.484;2023-07-29T11:43:07;30.90;1.00
41469;DHT22;27206;47.032;15.484;2023-07-29T11:45:33;31.10;1.00
41469;DHT22;27206;47.032;15.484;2023-07-29T11:48:01;31.40;1.00
41469;DHT22;27206;47.032;15.484;2023-07-29T11:50:26;31.40;1.00
41469;DHT22;27206;47.032;15.484;2023-07-29T11:52:52;31.50;1.00
41469;DHT22;27206;47.032;15.484;2023-07-29T11:55:18;31.70;1.00
41469;DHT22;27206;47.032;15.484;2023-07-29T11:57:50;31.90;1.00
41469;DHT22;27206;47.032;15.484;2023-07-29T12:00:16;31.90;1.00
41469;DHT22;27206;47.032;15.484;2023-07-29T12:02:44;32.10;1.00
41469;DHT22;27206;47.032;15.484;2023-07-29T12:05:12;32.30;1.00
41469;DHT22;27206;47.032;15.484;2023-07-29T12:07:43;32.30;1.00
41469;DHT22;27206;47.032;15.484;2023-07-29T12:10:10;32.50;1.00
41469;DHT22;27206;47.032;15.484;2023-07-29T12:12:49;32.40;1.00
41469;DHT22;27206;47.032;15.484;2023-07-29T12:15:26;32.00;1.00
41469;DHT22;27206;47.032;15.484;2023-07-29T12:17:56;32.40;1.00
41469;DHT22;27206;47.032;15.484;2023-07-29T12:20:22;32.80;1.00
41469;DHT22;27206;47.032;15.484;2023-07-29T12:22:59;33.10;1.00
41469;DHT22;27206;47.032;15.484;2023-07-29T12:25:27;33.50;1.00
41469;DHT22;27206;47.032;15.484;2023-07-29T12:27:52;33.60;1.00
41469;DHT22;27206;47.032;15.484;2023-07-29T12:30:22;34.00;1.00
41469;DHT22;27206;47.032;15.484;2023-07-29T12:32:48;33.70;1.00
41469;DHT22;27206;47.032;15.484;2023-07-29T12:35:14;34.10;1.00
41469;DHT22;27206;47.032;15.484;2023-07-29T12:37:40;33.60;1.00
41469;DHT22;27206;47.032;15.484;2023-07-29T12:40:20;33.10;1.00
41469;DHT22;27206;47.032;15.484;2023-07-29T12:42:46;33.30;1.00
41469;DHT22;27206;47.032;15.484;2023-07-29T12:45:12;33.80;1.00
41469;DHT22;27206;47.032;15.484;2023-07-29T12:47:40;34.60;1.00
41469;DHT22;27206;47.032;15.484;2023-07-29T12:50:06;34.10;1.00
41469;DHT22;27206;47.032;15.484;2023-07-29T12:52:31;32.80;1.00
41469;DHT22;27206;47.032;15.484;2023-07-29T12:54:57;33.20;1.00
41469;DHT22;27206;47.032;15.484;2023-07-29T12:57:22;32.60;1.00
41469;DHT22;27206;47.032;15.484;2023-07-29T12:59:48;32.10;1.00
41469;DHT22;27206;47.032;15.484;2023-07-29T13:02:14;31.40;1.00
41469;DHT22;27206;47.032;15.484;2023-07-29T13:04:39;31.10;1.00
41469;DHT22;27206;47.032;15.484;2023-07-29T13:07:05;30.60;1.00
41469;DHT22;27206;47.032;15.484;2023-07-29T13:09:32;30.10;1.00
41469;DHT22;27206;47.032;15.484;2023-07-29T13:11:57;30.00;1.00
41469;DHT22;27206;47.032;15.484;2023-07-29T13:14:23;30.20;1.00
41469;DHT22;27206;47.032;15.484;2023-07-29T13:16:51;30.20;1.00
41469;DHT22;27206;47.032;15.484;2023-07-29T13:19:18;30.00;1.00
41469;DHT22;27206;47.032;15.484;2023-07-29T13:21:44;29.70;1.00
41469;DHT22;27206;47.032;15.484;2023-07-29T13:24:09;29.30;6.60
41469;DHT22;27206;47.032;15.484;2023-07-29T13:26:35;29.10;12.00
41469;DHT22;27206;47.032;15.484;2023-07-29T13:29:01;29.00;49.00
41469;DHT22;27206;47.032;15.484;2023-07-29T13:31:26;28.90;78.70
41469;DHT22;27206;47.032;15.484;2023-07-29T13:33:52;28.90;71.00
41469;DHT22;27206;47.032;15.484;2023-07-29T13:36:17;28.60;75.50
41469;DHT22;27206;47.032;15.484;2023-07-29T13:38:43;28.20;71.70
41469;DHT22;27206;47.032;15.484;2023-07-29T13:41:09;27.90;85.90
41469;DHT22;27206;47.032;15.484;2023-07-29T13:43:34;28.00;81.50
41469;DHT22;27206;47.032;15.484;2023-07-29T13:46:00;28.00;77.00
41469;DHT22;27206;47.032;15.484;2023-07-29T13:48:25;28.20;71.00
41469;DHT22;27206;47.032;15.484;2023-07-29T13:50:53;28.20;63.60
41469;DHT22;27206;47.032;15.484;2023-07-29T13:53:18;28.40;56.70
41469;DHT22;27206;47.032;15.484;2023-07-29T13:55:44;29.80;34.20
41469;DHT22;27206;47.032;15.484;2023-07-29T13:58:09;30.60;24.00
41469;DHT22;27206;47.032;15.484;2023-07-29T14:00:35;30.80;35.60
41469;DHT22;27206;47.032;15.484;2023-07-29T14:03:01;31.60;15.80
41469;DHT22;27206;47.032;15.484;2023-07-29T14:05:26;31.80;10.50
41469;DHT22;27206;47.032;15.484;2023-07-29T14:07:52;31.80;18.30
41469;DHT22;27206;47.032;15.484;2023-07-29T14:10:17;31.50;23.40
41469;DHT22;27206;47.032;15.484;2023-07-29T14:12:43;32.10;15.10
41469;DHT22;27206;47.032;15.484;2023-07-29T14:15:09;31.60;9.20
41469;DHT22;27206;47.032;15.484;2023-07-29T14:17:35;31.10;32.40
41469;DHT22;27206;47.032;15.484;2023-07-29T14:20:01;30.90;26.30
41469;DHT22;27206;47.032;15.484;2023-07-29T14:22:26;30.60;28.20
41469;DHT22;27206;47.032;15.484;2023-07-29T14:24:52;31.70;22.20
41469;DHT22;27206;47.032;15.484;2023-07-29T14:27:17;31.90;10.60
41469;DHT22;27206;47.032;15.484;2023-07-29T14:29:43;32.30;9.10
41469;DHT22;27206;47.032;15.484;2023-07-29T14:32:09;32.40;12.40
41469;DHT22;27206;47.032;15.484;2023-07-29T14:34:34;32.70;20.40
41469;DHT22;27206;47.032;15.484;2023-07-29T14:37:00;32.60;13.90
41469;DHT22;27206;47.032;15.484;2023-07-29T14:39:25;31.70;25.20
41469;DHT22;27206;47.032;15.484;2023-07-29T14:41:51;30.90;33.20
41469;DHT22;27206;47.032;15.484;2023-07-29T14:44:17;30.60;28.50
41469;DHT22;27206;47.032;15.484;2023-07-29T14:46:42;30.50;37.90
41469;DHT22;27206;47.032;15.484;2023-07-29T14:49:08;30.30;41.90
41469;DHT22;27206;47.032;15.484;2023-07-29T14:51:34;30.20;37.90
41469;DHT22;27206;47.032;15.484;2023-07-29T14:54:00;30.10;36.80
41469;DHT22;27206;47.032;15.484;2023-07-29T14:56:26;30.10;27.10
41469;DHT22;27206;47.032;15.484;2023-07-29T14:58:51;30.10;16.20
41469;DHT22;27206;47.032;15.484;2023-07-29T15:01:17;30.50;20.00
41469;DHT22;27206;47.032;15.484;2023-07-29T15:03:43;31.20;17.10
41469;DHT22;27206;47.032;15.484;2023-07-29T15:06:08;31.90;19.70
41469;DHT22;27206;47.032;15.484;2023-07-29T15:08:34;32.60;12.70
41469;DHT22;27206;47.032;15.484;2023-07-29T15:11:00;32.30;6.40
41469;DHT22;27206;47.032;15.484;2023-07-29T15:13:25;32.20;1.00
41469;DHT22;27206;47.032;15.484;2023-07-29T15:15:51;32.50;1.00
41469;DHT22;27206;47.032;15.484;2023-07-29T15:18:16;33.20;1.00
41469;DHT22;27206;47.032;15.484;2023-07-29T15:20:43;33.10;1.00
41469;DHT22;27206;47.032;15.484;2023-07-29T15:23:08;32.70;1.00
41469;DHT22;27206;47.032;15.484;2023-07-29T15:25:34;32.90;1.00
41469;DHT22;27206;47.032;15.484;2023-07-29T15:28:00;33.00;1.00
41469;DHT22;27206;47.032;15.484;2023-07-29T15:30:25;32.90;1.00